createdAt,value
2019-06-27T00:00:13.665Z,102687.31
2019-06-27T00:02:42.856Z,102685.81
2019-06-27T00:05:12.206Z,102678.17
2019-06-27T00:07:41.418Z,102682.69
2019-06-27T00:10:11.113Z,102683.09
2019-06-27T00:12:40.298Z,102684.48
2019-06-27T00:15:09.643Z,102683.97
2019-06-27T00:17:38.809Z,102680.67
2019-06-27T00:20:08.286Z,102668.85
2019-06-27T00:22:40.883Z,102679.96
2019-06-27T00:25:08.508Z,102674.77
2019-06-27T00:27:37.697Z,102674.77
2019-06-27T00:30:07.667Z,102668.20
2019-06-27T00:32:36.853Z,102676.69
2019-06-27T00:35:09.019Z,102681.73
2019-06-27T00:37:38.205Z,102677.48
2019-06-27T00:40:07.726Z,102689.55
2019-06-27T00:42:36.890Z,102684.75
2019-06-27T00:45:06.755Z,102697.83
2019-06-27T00:47:35.942Z,102693.05
2019-06-27T00:50:07.155Z,102690.56
2019-06-27T00:52:36.474Z,102692.97
2019-06-27T00:55:06.587Z,102697.59
2019-06-27T00:57:36.167Z,102692.47
2019-06-27T01:00:07.486Z,102690.41
2019-06-27T01:02:36.732Z,102686.68
2019-06-27T01:05:09.717Z,102695.31
2019-06-27T01:07:38.886Z,102696.74
2019-06-27T01:10:09.126Z,102689.55
2019-06-27T01:12:38.304Z,102701.60
2019-06-27T01:15:08.052Z,102703.94
2019-06-27T01:17:37.437Z,102703.52
2019-06-27T01:20:07.561Z,102703.38
2019-06-27T01:22:36.769Z,102710.00
2019-06-27T01:25:07.204Z,102706.73
2019-06-27T01:27:36.479Z,102709.05
2019-06-27T01:30:09.391Z,102704.01
2019-06-27T01:32:38.521Z,102721.64
2019-06-27T01:35:08.353Z,102710.22
2019-06-27T01:37:37.539Z,102708.72
2019-06-27T01:40:07.565Z,102702.97
2019-06-27T01:42:36.907Z,102700.42
2019-06-27T01:45:21.751Z,102698.28
2019-06-27T01:47:50.959Z,102697.48
2019-06-27T01:50:20.152Z,102699.62
2019-06-27T01:52:49.390Z,102702.80
2019-06-27T01:55:18.570Z,102698.66
2019-06-27T01:57:47.764Z,102701.63
2019-06-27T02:00:18.784Z,102703.29
2019-06-27T02:02:48.097Z,102714.13
2019-06-27T02:05:17.413Z,102717.64
2019-06-27T02:07:46.670Z,102718.12
2019-06-27T02:10:16.337Z,102720.83
2019-06-27T02:12:45.525Z,102730.88
2019-06-27T02:15:16.031Z,102716.86
2019-06-27T02:17:45.234Z,102711.81
2019-06-27T02:20:15.044Z,102716.12
2019-06-27T02:22:44.251Z,102717.47
2019-06-27T02:25:14.569Z,102718.34
2019-06-27T02:27:43.778Z,102715.09
2019-06-27T02:30:14.989Z,102719.72
2019-06-27T02:32:44.174Z,102714.30
2019-06-27T02:35:13.548Z,102717.18
2019-06-27T02:37:42.729Z,102716.22
2019-06-27T02:40:12.044Z,102723.71
2019-06-27T02:42:41.513Z,102728.41
2019-06-27T02:45:10.834Z,102727.29
2019-06-27T02:47:40.029Z,102725.23
2019-06-27T02:50:09.345Z,102726.08
2019-06-27T02:52:38.517Z,102725.19
2019-06-27T02:55:08.034Z,102725.87
2019-06-27T02:57:37.396Z,102722.02
2019-06-27T03:00:07.555Z,102719.41
2019-06-27T03:02:37.750Z,102726.36
2019-06-27T03:05:09.797Z,102725.45
2019-06-27T03:07:39.088Z,102720.03
2019-06-27T03:10:08.704Z,102712.12
2019-06-27T03:12:37.990Z,102716.60
2019-06-27T03:15:10.871Z,102715.97
2019-06-27T03:17:40.115Z,102716.11
2019-06-27T03:20:10.248Z,102724.63
2019-06-27T03:22:39.426Z,102727.33
2019-06-27T03:25:08.634Z,102716.81
2019-06-27T03:27:37.824Z,102717.47
2019-06-27T03:30:07.647Z,102713.23
2019-06-27T03:32:36.895Z,102708.52
2019-06-27T03:35:06.126Z,102707.87
2019-06-27T03:37:35.342Z,102707.87
2019-06-27T03:40:07.776Z,102698.64
2019-06-27T03:42:36.950Z,102708.72
2019-06-27T03:45:07.367Z,102703.34
2019-06-27T03:47:36.551Z,102709.24
2019-06-27T03:50:07.292Z,102707.86
2019-06-27T03:52:36.476Z,102708.83
2019-06-27T03:55:06.395Z,102707.75
2019-06-27T03:57:35.678Z,102710.70
2019-06-27T04:00:06.397Z,102709.90
2019-06-27T04:02:35.616Z,102708.68
2019-06-27T04:05:05.377Z,102715.38
2019-06-27T04:07:34.627Z,102715.75
2019-06-27T04:10:04.266Z,102708.45
2019-06-27T04:12:33.513Z,102720.70
2019-06-27T04:15:02.784Z,102713.48
2019-06-27T04:17:31.964Z,102712.02
2019-06-27T04:20:01.212Z,102718.72
2019-06-27T04:22:30.419Z,102716.08
2019-06-27T04:24:59.600Z,102721.99
2019-06-27T04:27:28.813Z,102725.23
2019-06-27T04:29:57.996Z,102726.03
2019-06-27T04:32:27.157Z,102725.05
2019-06-27T04:34:56.352Z,102722.80
2019-06-27T04:37:25.551Z,102727.27
2019-06-27T04:39:54.756Z,102730.48
2019-06-27T04:42:24.013Z,102739.27
2019-06-27T04:44:53.217Z,102741.77
2019-06-27T04:47:22.377Z,102744.93
2019-06-27T04:49:51.651Z,102739.08
2019-06-27T04:52:20.804Z,102737.51
2019-06-27T04:54:49.999Z,102739.80
2019-06-27T04:57:19.191Z,102741.09
2019-06-27T04:59:53.899Z,102744.91
2019-06-27T05:02:19.258Z,102750.77
2019-06-27T05:04:48.471Z,102748.06
2019-06-27T05:07:17.690Z,102752.67
2019-06-27T05:09:46.901Z,102752.33
2019-06-27T05:12:16.053Z,102760.43
2019-06-27T05:14:45.235Z,102755.82
2019-06-27T05:17:14.423Z,102758.66
2019-06-27T05:19:43.598Z,102759.09
2019-06-27T05:22:13.739Z,102760.80
2019-06-27T05:24:42.919Z,102765.13
2019-06-27T05:27:12.109Z,102762.59
2019-06-27T05:29:41.290Z,102759.53
2019-06-27T05:32:10.493Z,102771.28
2019-06-27T05:34:39.697Z,102770.21
2019-06-27T05:37:09.833Z,102770.05
2019-06-27T05:39:39.015Z,102776.47
2019-06-27T05:42:08.203Z,102784.19
2019-06-27T05:44:37.379Z,102775.69
2019-06-27T05:47:06.593Z,102772.56
2019-06-27T05:49:35.777Z,102782.71
2019-06-27T05:52:04.944Z,102784.31
2019-06-27T05:54:34.130Z,102779.69
2019-06-27T05:57:03.355Z,102778.66
2019-06-27T05:59:32.543Z,102780.38
2019-06-27T06:02:01.739Z,102779.95
2019-06-27T06:04:30.905Z,102776.08
2019-06-27T06:07:00.090Z,102771.21
2019-06-27T06:09:32.734Z,102771.27
2019-06-27T06:12:00.220Z,102773.07
2019-06-27T06:14:29.439Z,102771.56
2019-06-27T06:16:58.692Z,102780.53
2019-06-27T06:19:27.941Z,102780.96
2019-06-27T06:21:57.110Z,102778.45
2019-06-27T06:24:26.333Z,102781.52
2019-06-27T06:26:55.561Z,102777.55
2019-06-27T06:29:24.720Z,102782.25
2019-06-27T06:31:53.909Z,102773.15
2019-06-27T06:34:23.117Z,102773.74
2019-06-27T06:36:52.368Z,102783.47
2019-06-27T06:39:22.489Z,102779.52
2019-06-27T06:41:51.716Z,102782.14
2019-06-27T06:44:20.967Z,102782.42
2019-06-27T06:46:50.083Z,102786.66
2019-06-27T06:49:19.280Z,102791.22
2019-06-27T06:51:48.490Z,102794.36
2019-06-27T06:54:17.710Z,102792.78
2019-06-27T06:56:46.901Z,102790.22
2019-06-27T06:59:16.104Z,102791.91
2019-06-27T07:01:45.864Z,102799.92
2019-06-27T07:04:15.129Z,102797.08
2019-06-27T07:06:44.350Z,102804.04
2019-06-27T07:09:13.547Z,102805.18
2019-06-27T07:11:42.725Z,102819.07
2019-06-27T07:14:11.904Z,102810.55
2019-06-27T07:16:41.080Z,102802.44
2019-06-27T07:19:10.278Z,102809.23
2019-06-27T07:21:39.515Z,102811.29
2019-06-27T07:24:08.745Z,102808.12
2019-06-27T07:26:37.928Z,102809.06
2019-06-27T07:29:07.096Z,102812.52
2019-06-27T07:31:37.347Z,102815.11
2019-06-27T07:34:06.574Z,102819.47
2019-06-27T07:36:35.837Z,102826.86
2019-06-27T07:39:05.801Z,102823.58
2019-06-27T07:41:35.044Z,102826.15
2019-06-27T07:44:04.319Z,102820.08
2019-06-27T07:46:33.502Z,102822.83
2019-06-27T07:49:02.706Z,102824.66
2019-06-27T07:51:31.902Z,102846.07
2019-06-27T07:54:01.860Z,102825.97
2019-06-27T07:56:31.034Z,102822.33
2019-06-27T07:59:00.225Z,102821.26
2019-06-27T08:01:34.920Z,102822.72
2019-06-27T08:04:00.348Z,102816.17
2019-06-27T08:06:29.533Z,102835.95
2019-06-27T08:08:58.730Z,102829.78
2019-06-27T08:11:27.983Z,102829.52
2019-06-27T08:13:57.187Z,102816.53
2019-06-27T08:16:26.365Z,102815.39
2019-06-27T08:18:55.533Z,102818.81
2019-06-27T08:21:24.715Z,102817.45
2019-06-27T08:23:53.882Z,102820.49
2019-06-27T08:26:23.089Z,102814.81
2019-06-27T08:28:52.260Z,102806.70
2019-06-27T08:31:21.451Z,102809.97
2019-06-27T08:33:50.718Z,102812.16
2019-06-27T08:36:19.967Z,102815.41
2019-06-27T08:38:49.175Z,102805.23
2019-06-27T08:41:18.364Z,102815.48
2019-06-27T08:43:47.544Z,102811.11
2019-06-27T08:46:18.017Z,102819.19
2019-06-27T08:48:47.193Z,102815.41
2019-06-27T08:51:16.398Z,102815.38
2019-06-27T08:53:45.585Z,102809.84
2019-06-27T08:56:14.767Z,102818.21
2019-06-27T08:58:43.965Z,102816.16
2019-06-27T09:01:13.145Z,102818.91
2019-06-27T09:03:42.383Z,102813.46
2019-06-27T09:06:11.568Z,102807.03
2019-06-27T09:08:41.747Z,102804.56
2019-06-27T09:11:11.384Z,102800.25
2019-06-27T09:13:40.564Z,102789.73
2019-06-27T09:16:09.763Z,102805.23
2019-06-27T09:18:38.928Z,102801.33
2019-06-27T09:21:09.099Z,102799.30
2019-06-27T09:23:38.273Z,102791.67
2019-06-27T09:26:07.549Z,102787.84
2019-06-27T09:28:36.712Z,102792.98
2019-06-27T09:31:05.912Z,102799.09
2019-06-27T09:33:35.103Z,102797.16
2019-06-27T09:36:04.806Z,102802.52
2019-06-27T09:38:34.184Z,102801.23
2019-06-27T09:41:03.423Z,102808.61
2019-06-27T09:43:32.595Z,102808.07
2019-06-27T09:46:01.873Z,102809.14
2019-06-27T09:48:31.969Z,102809.55
2019-06-27T09:51:01.149Z,102805.31
2019-06-27T09:53:30.344Z,102807.70
2019-06-27T09:55:59.612Z,102808.85
2019-06-27T09:58:28.821Z,102813.10
2019-06-27T10:00:58.092Z,102812.64
2019-06-27T10:03:27.370Z,102805.79
2019-06-27T10:05:56.542Z,102804.80
2019-06-27T10:08:25.764Z,102809.05
2019-06-27T10:10:55.022Z,102805.64
2019-06-27T10:13:24.448Z,102806.86
2019-06-27T10:15:53.577Z,102796.35
2019-06-27T10:18:22.727Z,102796.47
2019-06-27T10:20:52.027Z,102811.80
2019-06-27T10:23:21.198Z,102807.14
2019-06-27T10:25:50.391Z,102808.22
2019-06-27T10:28:19.592Z,102808.27
2019-06-27T10:30:49.369Z,102806.97
2019-06-27T10:33:18.774Z,102807.84
2019-06-27T10:35:47.963Z,102804.08
2019-06-27T10:38:17.163Z,102814.36
2019-06-27T10:40:47.323Z,102807.93
2019-06-27T10:43:16.503Z,102808.91
2019-06-27T10:45:45.730Z,102802.45
2019-06-27T10:48:14.928Z,102802.69
2019-06-27T10:50:46.503Z,102810.04
2019-06-27T10:53:14.996Z,102800.72
2019-06-27T10:55:44.193Z,102813.00
2019-06-27T10:58:13.417Z,102814.64
2019-06-27T11:00:42.590Z,102818.09
2019-06-27T11:03:16.052Z,102822.43
2019-06-27T11:05:42.669Z,102810.97
2019-06-27T11:08:11.867Z,102816.17
2019-06-27T11:10:41.075Z,102805.23
2019-06-27T11:13:10.281Z,102804.86
2019-06-27T11:15:39.459Z,102793.68
2019-06-27T11:18:08.717Z,102801.95
2019-06-27T11:20:37.922Z,102806.53
2019-06-27T11:23:07.129Z,102796.61
2019-06-27T11:25:36.295Z,102797.70
2019-06-27T11:28:05.490Z,102793.80
2019-06-27T11:30:34.667Z,102794.48
2019-06-27T11:33:03.961Z,102791.09
2019-06-27T11:35:33.143Z,102791.88
2019-06-27T11:38:02.384Z,102783.24
2019-06-27T11:40:31.652Z,102778.72
2019-06-27T11:43:00.835Z,102777.50
2019-06-27T11:45:30.218Z,102766.57
2019-06-27T11:47:59.422Z,102770.16
2019-06-27T11:50:28.603Z,102764.12
2019-06-27T11:52:57.783Z,102760.54
2019-06-27T11:55:26.977Z,102771.73
2019-06-27T11:57:56.816Z,102770.55
2019-06-27T12:00:26.194Z,102775.80
2019-06-27T12:02:55.328Z,102775.41
2019-06-27T12:05:24.517Z,102765.56
2019-06-27T12:07:53.711Z,102777.16
2019-06-27T12:10:23.361Z,102772.70
2019-06-27T12:12:52.546Z,102759.27
2019-06-27T12:15:21.772Z,102755.10
2019-06-27T12:17:51.365Z,102760.05
2019-06-27T12:20:20.640Z,102751.61
2019-06-27T12:22:49.898Z,102757.16
2019-06-27T12:25:19.536Z,102748.40
2019-06-27T12:27:48.725Z,102745.58
2019-06-27T12:30:18.397Z,102740.59
2019-06-27T12:32:52.429Z,102733.61
2019-06-27T12:35:18.605Z,102737.41
2019-06-27T12:37:47.784Z,102748.67
2019-06-27T12:40:17.207Z,102758.30
2019-06-27T12:42:46.929Z,102747.03
2019-06-27T12:45:16.549Z,102737.00
2019-06-27T12:47:45.752Z,102736.33
2019-06-27T12:50:16.634Z,102732.83
2019-06-27T12:52:45.843Z,102737.10
2019-06-27T12:55:15.042Z,102741.38
2019-06-27T12:57:44.244Z,102744.50
2019-06-27T13:00:14.565Z,102745.86
2019-06-27T13:02:43.743Z,102743.14
2019-06-27T13:05:13.067Z,102734.20
2019-06-27T13:07:42.249Z,102737.28
2019-06-27T13:10:11.591Z,102735.14
2019-06-27T13:12:40.793Z,102741.00
2019-06-27T13:15:10.240Z,102739.83
2019-06-27T13:17:39.406Z,102734.01
2019-06-27T13:20:09.138Z,102733.79
2019-06-27T13:22:38.331Z,102741.38
2019-06-27T13:25:07.972Z,102734.01
2019-06-27T13:27:37.167Z,102738.09
2019-06-27T13:30:07.283Z,102734.56
2019-06-27T13:32:36.505Z,102736.33
2019-06-27T13:35:06.551Z,102731.66
2019-06-27T13:37:35.752Z,102737.59
2019-06-27T13:40:06.361Z,102731.84
2019-06-27T13:42:38.241Z,102729.80
2019-06-27T13:45:07.471Z,102722.43
2019-06-27T13:47:36.719Z,102720.76
2019-06-27T13:50:07.073Z,102726.11
2019-06-27T13:52:37.204Z,102719.66
2019-06-27T13:55:07.023Z,102731.73
2019-06-27T13:57:36.218Z,102720.16
2019-06-27T14:00:09.312Z,102718.37
2019-06-27T14:02:38.487Z,102714.98
2019-06-27T14:05:08.133Z,102728.92
2019-06-27T14:07:37.379Z,102717.70
2019-06-27T14:10:08.321Z,102716.74
2019-06-27T14:12:37.533Z,102717.70
2019-06-27T14:15:10.222Z,102726.95
2019-06-27T14:17:39.412Z,102715.29
2019-06-27T14:20:09.276Z,102721.24
2019-06-27T14:22:38.458Z,102720.94
2019-06-27T14:25:08.011Z,102712.84
2019-06-27T14:27:37.189Z,102714.13
2019-06-27T14:30:09.646Z,102719.38
2019-06-27T14:32:38.837Z,102710.34
2019-06-27T14:35:15.201Z,102715.30
2019-06-27T14:37:39.342Z,102716.67
2019-06-27T14:40:09.554Z,102718.22
2019-06-27T14:42:38.763Z,102734.19
2019-06-27T14:45:08.209Z,102718.63
2019-06-27T14:47:37.387Z,102717.54
2019-06-27T14:50:07.408Z,102711.81
2019-06-27T14:52:36.596Z,102716.17
2019-06-27T14:55:07.358Z,102705.59
2019-06-27T14:57:36.658Z,102703.23
2019-06-27T15:00:07.708Z,102717.27
2019-06-27T15:02:36.878Z,102704.73
2019-06-27T15:05:07.586Z,102701.78
2019-06-27T15:07:36.791Z,102705.88
2019-06-27T15:10:07.788Z,102710.54
2019-06-27T15:12:36.967Z,102708.30
2019-06-27T15:15:06.884Z,102711.81
2019-06-27T15:17:36.076Z,102695.87
2019-06-27T15:20:06.929Z,102711.40
2019-06-27T15:22:36.110Z,102720.92
2019-06-27T15:25:08.553Z,102714.70
2019-06-27T15:27:37.773Z,102714.88
2019-06-27T15:30:07.775Z,102709.58
2019-06-27T15:32:37.049Z,102701.41
2019-06-27T15:35:07.371Z,102703.63
2019-06-27T15:37:36.554Z,102702.64
2019-06-27T15:40:07.368Z,102695.14
2019-06-27T15:42:36.579Z,102700.66
2019-06-27T15:45:10.415Z,102699.21
2019-06-27T15:47:39.602Z,102695.63
2019-06-27T15:50:10.825Z,102694.77
2019-06-27T15:52:40.081Z,102697.39
2019-06-27T15:55:12.189Z,102684.83
2019-06-27T15:57:40.716Z,102675.59
2019-06-27T16:00:11.790Z,102680.44
2019-06-27T16:02:41.198Z,102688.67
2019-06-27T16:05:10.764Z,102676.14
2019-06-27T16:07:40.007Z,102684.45
2019-06-27T16:10:09.709Z,102681.58
2019-06-27T16:12:38.869Z,102683.33
2019-06-27T16:15:08.582Z,102677.81
2019-06-27T16:17:37.775Z,102676.81
2019-06-27T16:20:09.021Z,102677.20
2019-06-27T16:22:38.198Z,102678.47
2019-06-27T16:25:08.203Z,102679.23
2019-06-27T16:27:37.292Z,102672.34
2019-06-27T16:30:09.128Z,102670.06
2019-06-27T16:32:38.343Z,102667.45
2019-06-27T16:35:07.967Z,102659.34
2019-06-27T16:37:37.157Z,102667.34
2019-06-27T16:40:07.737Z,102666.66
2019-06-27T16:42:37.010Z,102661.11
2019-06-27T16:45:10.801Z,102661.75
2019-06-27T16:47:39.971Z,102650.27
2019-06-27T16:50:09.721Z,102654.27
2019-06-27T16:52:38.891Z,102653.13
2019-06-27T16:55:08.422Z,102654.06
2019-06-27T16:57:37.621Z,102652.80
2019-06-27T17:00:07.555Z,102657.05
2019-06-27T17:02:36.836Z,102651.38
2019-06-27T17:05:07.053Z,102646.89
2019-06-27T17:07:36.246Z,102651.08
2019-06-27T17:10:06.790Z,102654.51
2019-06-27T17:12:36.057Z,102647.34
2019-06-27T17:15:07.581Z,102652.77
2019-06-27T17:17:36.792Z,102657.64
2019-06-27T17:20:07.528Z,102655.31
2019-06-27T17:22:36.710Z,102649.64
2019-06-27T17:25:06.933Z,102665.14
2019-06-27T17:27:36.213Z,102638.83
2019-06-27T17:30:10.406Z,102653.60
2019-06-27T17:32:39.599Z,102641.19
2019-06-27T17:35:08.917Z,102641.77
2019-06-27T17:37:38.091Z,102638.69
2019-06-27T17:40:10.144Z,102664.16
2019-06-27T17:42:39.685Z,102651.53
2019-06-27T17:45:09.140Z,102643.95
2019-06-27T17:47:38.359Z,102650.36
2019-06-27T17:50:07.893Z,102652.22
2019-06-27T17:52:37.099Z,102643.95
2019-06-27T17:55:07.411Z,102644.64
2019-06-27T17:57:36.586Z,102641.02
2019-06-27T18:00:07.800Z,102642.50
2019-06-27T18:02:37.041Z,102645.50
2019-06-27T18:05:06.390Z,102644.70
2019-06-27T18:07:35.572Z,102635.94
2019-06-27T18:10:05.582Z,102632.93
2019-06-27T18:12:34.786Z,102633.80
2019-06-27T18:15:06.009Z,102627.77
2019-06-27T18:17:35.350Z,102643.91
2019-06-27T18:20:06.166Z,102629.34
2019-06-27T18:22:35.338Z,102628.45
2019-06-27T18:25:05.542Z,102629.34
2019-06-27T18:27:34.726Z,102635.75
2019-06-27T18:30:06.012Z,102625.27
2019-06-27T18:32:35.209Z,102626.72
2019-06-27T18:35:04.834Z,102636.34
2019-06-27T18:37:34.005Z,102627.38
2019-06-27T18:40:03.329Z,102623.78
2019-06-27T18:42:32.531Z,102616.52
2019-06-27T18:45:01.726Z,102618.64
2019-06-27T18:47:30.968Z,102609.02
2019-06-27T18:50:00.153Z,102622.63
2019-06-27T18:52:29.327Z,102619.04
2019-06-27T18:54:58.758Z,102620.84
2019-06-27T18:57:27.930Z,102615.89
2019-06-27T18:59:57.111Z,102613.38
2019-06-27T19:02:26.291Z,102611.14
2019-06-27T19:04:55.489Z,102610.95
2019-06-27T19:07:24.670Z,102610.08
2019-06-27T19:09:55.564Z,102619.28
2019-06-27T19:12:24.764Z,102619.94
2019-06-27T19:14:53.949Z,102618.19
2019-06-27T19:17:26.646Z,102614.61
2019-06-27T19:19:55.679Z,102614.84
2019-06-27T19:22:43.010Z,102623.43
2019-06-27T19:25:13.980Z,102616.03
2019-06-27T19:27:43.162Z,102627.58
2019-06-27T19:30:12.371Z,102625.46
2019-06-27T19:32:41.524Z,102626.16
2019-06-27T19:35:10.786Z,102635.84
2019-06-27T19:37:39.962Z,102631.45
2019-06-27T19:40:09.684Z,102642.48
2019-06-27T19:42:38.890Z,102633.48
2019-06-27T19:45:08.207Z,102633.92
2019-06-27T19:47:37.380Z,102636.61
2019-06-27T19:50:07.026Z,102637.55
2019-06-27T19:52:36.219Z,102637.14
2019-06-27T19:55:06.544Z,102642.73
2019-06-27T19:57:35.776Z,102649.53
2019-06-27T20:00:06.609Z,102645.42
2019-06-27T20:02:35.799Z,102647.27
2019-06-27T20:05:08.511Z,102649.73
2019-06-27T20:07:37.770Z,102659.09
2019-06-27T20:10:11.512Z,102649.75
2019-06-27T20:12:39.185Z,102652.25
2019-06-27T20:15:09.152Z,102650.05
2019-06-27T20:17:40.174Z,102650.37
2019-06-27T20:20:09.521Z,102641.92
2019-06-27T20:22:38.703Z,102649.97
2019-06-27T20:25:08.406Z,102652.24
2019-06-27T20:27:37.538Z,102641.64
2019-06-27T20:30:09.309Z,102648.19
2019-06-27T20:32:38.489Z,102648.03
2019-06-27T20:35:09.218Z,102645.06
2019-06-27T20:37:38.447Z,102641.56
2019-06-27T20:40:09.163Z,102649.22
2019-06-27T20:42:38.442Z,102636.57
2019-06-27T20:45:09.069Z,102645.84
2019-06-27T20:47:38.326Z,102646.13
2019-06-27T20:50:08.488Z,102642.20
2019-06-27T20:52:37.653Z,102646.11
2019-06-27T20:55:07.006Z,102647.27
2019-06-27T20:57:36.247Z,102644.56
2019-06-27T21:00:09.468Z,102637.55
2019-06-27T21:02:38.659Z,102641.72
2019-06-27T21:05:08.691Z,102637.70
2019-06-27T21:07:56.193Z,102635.79
2019-06-27T21:10:25.468Z,102636.42
2019-06-27T21:12:54.636Z,102636.05
2019-06-27T21:15:23.881Z,102636.84
2019-06-27T21:17:53.067Z,102641.05
2019-06-27T21:20:22.276Z,102641.44
2019-06-27T21:22:51.507Z,102636.66
2019-06-27T21:25:20.810Z,102642.98
2019-06-27T21:27:49.983Z,102640.79
2019-06-27T21:30:19.502Z,102651.14
2019-06-27T21:32:48.798Z,102642.41
2019-06-27T21:35:17.953Z,102644.78
2019-06-27T21:37:47.141Z,102642.53
2019-06-27T21:40:17.053Z,102640.39
2019-06-27T21:42:46.338Z,102635.45
2019-06-27T21:45:15.828Z,102631.42
2019-06-27T21:47:45.042Z,102632.78
2019-06-27T21:50:14.643Z,102629.44
2019-06-27T21:52:45.406Z,102633.91
2019-06-27T21:55:15.114Z,102632.14
2019-06-27T21:57:44.301Z,102634.14
2019-06-27T22:00:14.044Z,102631.61
2019-06-27T22:02:43.224Z,102635.09
2019-06-27T22:05:13.927Z,102633.52
2019-06-27T22:07:43.120Z,102629.38
2019-06-27T22:10:12.835Z,102635.59
2019-06-27T22:12:49.132Z,102636.27
2019-06-27T22:15:18.473Z,102635.16
2019-06-27T22:17:47.634Z,102633.02
2019-06-27T22:20:17.369Z,102634.69
2019-06-27T22:22:46.567Z,102644.06
2019-06-27T22:25:16.202Z,102637.78
2019-06-27T22:27:45.376Z,102630.23
2019-06-27T22:30:15.126Z,102631.22
2019-06-27T22:32:44.444Z,102632.12
2019-06-27T22:35:13.953Z,102635.03
2019-06-27T22:38:00.772Z,102636.16
2019-06-27T22:40:47.599Z,102625.70
2019-06-27T22:43:34.909Z,102620.35
2019-06-27T22:46:22.264Z,102616.06
2019-06-27T22:48:51.402Z,102615.19
2019-06-27T22:51:27.771Z,102613.27
2019-06-27T22:53:58.612Z,102610.64
2019-06-27T22:56:27.805Z,102605.37
2019-06-27T22:58:56.985Z,102611.58
2019-06-27T23:01:26.195Z,102607.78
2019-06-27T23:03:55.367Z,102603.45
2019-06-27T23:06:24.555Z,102603.93
2019-06-27T23:08:53.732Z,102605.63
2019-06-27T23:11:22.900Z,102603.30
2019-06-27T23:13:52.076Z,102608.48
2019-06-27T23:16:21.247Z,102600.58
2019-06-27T23:18:50.437Z,102597.65
2019-06-27T23:21:21.629Z,102594.86
2019-06-27T23:23:51.182Z,102600.77
2019-06-27T23:26:20.488Z,102599.49
2019-06-27T23:28:49.667Z,102594.45
2019-06-27T23:31:18.861Z,102597.38
2019-06-27T23:33:48.049Z,102594.03
2019-06-27T23:36:17.236Z,102605.59
2019-06-27T23:38:46.481Z,102602.39
2019-06-27T23:41:15.680Z,102606.49
2019-06-27T23:43:45.244Z,102606.11
2019-06-27T23:46:31.922Z,102614.84
2019-06-27T23:49:01.118Z,102611.77
2019-06-27T23:51:30.310Z,102612.06
2019-06-27T23:53:59.470Z,102602.95
2019-06-27T23:56:29.652Z,102604.64
2019-06-27T23:58:58.848Z,102600.34
